Terminal Aerodrome Forecast
Issued by NWS Cleveland, OH

Home | Current Version | Previous Version | Graphics & Text | Print | Product List | Glossary On
Versions: 1 2 3 4 5 6 7 8 9 10 11 12 13 14 15 16 17 18 19
000
FTUS41 KCLE 021729
TAFTOL
TAF
KTOL 021729Z 0218/0318 25008KT P6SM SCT050
     FM030000 27005KT P6SM SCT250
      TEMPO 0311/0313 5SM BR
     FM031500 35005KT P6SM VCSH BKN050 OVC150=

USA.gov is the U.S. government's official web portal to all federal, state and local government web resources and services.